Hartland, Minnesota
Current Conditions -  °F | °C
As of 9:14 AM on Wednesday 22 Oct 2014 (Local Time) from KAEL Reporting Station
Scattered Clouds Scattered Clouds  
Wind Chill:   Ceiling: Unl
Heat Index:   Visibility: 10mi
Dew Point:   Wind: 16mph
Humidity: 87%   Direction: 150°SSE
Pressure: 30.19"   Gusts: 25mph
Location:  43.8°N, 93.49°W
Report Text: KAEL 221414Z AUTO 15014G22KT 10SM SCT075 06/04 A3019 RMK AO2
Loading
Personal Weather Stations






























Interactive Weather Map
Tropical Storm Tracking
New forecast layout! Learn more

10-Day Weather Forecast

Advertisements
Track Severe Weather on mobile